createdAt,value
2023-10-29T00:01:54.989Z,9.25
2023-10-29T00:05:58.251Z,9.26
2023-10-29T00:10:01.640Z,9.28
2023-10-29T00:14:05.230Z,9.31
2023-10-29T00:18:14.010Z,9.36
2023-10-29T00:22:18.104Z,9.39
2023-10-29T00:26:21.888Z,9.38
2023-10-29T00:30:26.081Z,9.31
2023-10-29T00:34:29.349Z,9.30
2023-10-29T00:38:32.708Z,9.27
2023-10-29T00:42:36.016Z,9.25
2023-10-29T00:46:42.003Z,9.24
2023-10-29T00:50:45.444Z,9.20
2023-10-29T00:54:50.355Z,9.18
2023-10-29T00:58:54.359Z,9.24
2023-10-29T01:02:57.858Z,9.29
2023-10-29T01:07:01.316Z,9.32
2023-10-29T01:11:07.356Z,9.35
2023-10-29T01:15:11.383Z,9.39
2023-10-29T01:19:14.672Z,9.41
2023-10-29T01:23:19.883Z,9.41
2023-10-29T01:27:23.245Z,9.40
2023-10-29T01:31:26.533Z,9.42
2023-10-29T01:35:29.818Z,9.43
2023-10-29T01:39:33.161Z,9.43
2023-10-29T01:43:36.612Z,9.48
2023-10-29T01:47:39.935Z,9.50
2023-10-29T01:51:43.340Z,9.45
2023-10-29T01:55:46.687Z,9.46
2023-10-29T01:59:50.113Z,9.51
2023-10-29T02:03:53.522Z,9.55
2023-10-29T02:07:56.911Z,9.55
2023-10-29T02:12:00.205Z,9.52
2023-10-29T02:16:04.945Z,9.47
2023-10-29T02:20:10.161Z,9.43
2023-10-29T02:24:13.460Z,9.42
2023-10-29T02:28:16.727Z,9.41
2023-10-29T02:32:20.416Z,9.35
2023-10-29T02:36:23.672Z,9.32
2023-10-29T02:40:26.885Z,9.30
2023-10-29T02:44:30.595Z,9.28
2023-10-29T02:48:34.149Z,9.25
2023-10-29T02:52:37.480Z,9.18
2023-10-29T02:56:42.081Z,9.14
2023-10-29T03:00:45.567Z,9.10
2023-10-29T03:04:49.192Z,9.07
2023-10-29T03:08:52.679Z,9.04
2023-10-29T03:12:55.973Z,9.00
2023-10-29T03:16:59.237Z,8.95
2023-10-29T03:21:02.575Z,8.89
2023-10-29T03:25:06.069Z,8.84
2023-10-29T03:29:09.392Z,8.82
2023-10-29T03:33:12.692Z,8.77
2023-10-29T03:37:16.025Z,8.75
2023-10-29T03:41:23.559Z,8.78
2023-10-29T03:45:26.860Z,8.82
2023-10-29T03:49:30.190Z,8.90
2023-10-29T03:53:33.476Z,8.97
2023-10-29T03:57:36.981Z,9.02
2023-10-29T04:01:40.259Z,9.10
2023-10-29T04:05:44.240Z,9.16
2023-10-29T04:09:47.515Z,9.18
2023-10-29T04:13:50.843Z,9.17
2023-10-29T04:17:54.228Z,9.19
2023-10-29T04:21:57.626Z,9.24
2023-10-29T04:26:00.884Z,9.30
2023-10-29T04:30:04.421Z,9.32
2023-10-29T04:34:07.759Z,9.33
2023-10-29T04:38:11.052Z,9.29
2023-10-29T04:42:14.293Z,9.28
2023-10-29T04:46:17.562Z,9.29
2023-10-29T04:50:21.007Z,9.28
2023-10-29T04:54:24.809Z,9.24
2023-10-29T04:58:28.193Z,9.15
2023-10-29T05:02:31.715Z,9.12
2023-10-29T05:06:34.992Z,9.08
2023-10-29T05:10:38.367Z,9.05
2023-10-29T05:14:41.716Z,9.01
2023-10-29T05:18:45.085Z,8.97
2023-10-29T05:22:48.336Z,8.93
2023-10-29T05:26:51.785Z,8.91
2023-10-29T05:30:55.220Z,8.94
2023-10-29T05:34:58.533Z,9.02
2023-10-29T05:39:02.889Z,9.09
2023-10-29T05:43:06.379Z,9.08
2023-10-29T05:47:09.755Z,9.11
2023-10-29T05:51:18.873Z,9.11
2023-10-29T05:55:23.936Z,9.13
2023-10-29T05:59:29.587Z,9.19
2023-10-29T06:03:35.020Z,9.24
2023-10-29T06:07:38.584Z,9.32
2023-10-29T06:11:43.142Z,9.41
2023-10-29T06:15:46.526Z,9.49
2023-10-29T06:19:49.954Z,9.55
2023-10-29T06:23:53.402Z,9.60
2023-10-29T06:27:56.765Z,9.60
2023-10-29T06:32:00.103Z,9.61
2023-10-29T06:36:03.599Z,9.63
2023-10-29T06:40:07.899Z,9.62
2023-10-29T06:44:11.138Z,9.60
2023-10-29T06:48:14.912Z,9.62
2023-10-29T06:52:18.297Z,9.65
2023-10-29T06:56:21.572Z,9.68
2023-10-29T07:00:24.878Z,9.75
2023-10-29T07:04:28.371Z,9.81
2023-10-29T07:08:31.835Z,9.91
2023-10-29T07:12:35.291Z,10.04
2023-10-29T07:16:45.448Z,10.15
2023-10-29T07:20:48.823Z,10.24
2023-10-29T07:24:52.461Z,10.32
2023-10-29T07:28:55.673Z,10.42
2023-10-29T07:32:59.120Z,10.55
2023-10-29T07:37:02.558Z,10.77
2023-10-29T07:41:06.041Z,10.98
2023-10-29T07:45:09.628Z,11.20
2023-10-29T07:49:12.939Z,11.29
2023-10-29T07:53:16.179Z,11.38
2023-10-29T07:57:19.453Z,11.45
2023-10-29T08:01:22.851Z,11.56
2023-10-29T08:05:26.152Z,11.69
2023-10-29T08:09:29.435Z,11.81
2023-10-29T08:13:32.811Z,11.96
2023-10-29T08:17:36.300Z,12.12
2023-10-29T08:21:39.605Z,12.28
2023-10-29T08:25:42.828Z,12.36
2023-10-29T08:29:46.593Z,12.43
2023-10-29T08:33:50.569Z,12.55
2023-10-29T08:37:54.593Z,12.59
2023-10-29T08:41:58.713Z,12.61
2023-10-29T08:46:03.598Z,12.70
2023-10-29T08:50:09.849Z,12.78
2023-10-29T08:54:13.599Z,12.85
2023-10-29T08:58:17.054Z,12.87
2023-10-29T09:02:20.450Z,12.99
2023-10-29T09:06:23.887Z,13.10
2023-10-29T09:10:28.350Z,13.16
2023-10-29T09:14:31.624Z,13.14
2023-10-29T09:18:34.942Z,13.15
2023-10-29T09:22:38.187Z,13.34
2023-10-29T09:26:42.502Z,13.54
2023-10-29T09:30:46.309Z,13.61
2023-10-29T09:34:49.980Z,13.66
2023-10-29T09:38:53.462Z,13.77
2023-10-29T09:42:57.349Z,13.85
2023-10-29T09:47:12.115Z,13.99
2023-10-29T09:51:15.905Z,14.01
2023-10-29T09:55:21.370Z,14.02
2023-10-29T09:59:25.192Z,14.09
2023-10-29T10:03:28.834Z,14.20
2023-10-29T10:07:32.898Z,14.32
2023-10-29T10:11:37.423Z,14.39
2023-10-29T10:15:40.874Z,14.54
2023-10-29T10:19:44.213Z,14.67
2023-10-29T10:23:58.002Z,14.77
2023-10-29T10:28:03.668Z,14.88
2023-10-29T10:32:08.200Z,15.00
2023-10-29T10:36:11.687Z,15.12
2023-10-29T10:40:27.598Z,15.19
2023-10-29T10:44:32.101Z,15.23
2023-10-29T10:48:37.630Z,15.28
2023-10-29T10:52:41.223Z,15.39
2023-10-29T10:56:45.242Z,15.43
2023-10-29T11:00:50.706Z,15.46
2023-10-29T11:04:55.772Z,15.49
2023-10-29T11:09:03.167Z,15.56
2023-10-29T11:13:21.577Z,15.64
2023-10-29T11:17:57.784Z,15.69
2023-10-29T11:22:14.446Z,15.73
2023-10-29T11:26:22.762Z,15.80
2023-10-29T11:30:29.949Z,15.84
2023-10-29T11:34:34.762Z,15.84
2023-10-29T11:38:40.608Z,15.86
2023-10-29T11:42:45.906Z,15.93
2023-10-29T11:47:04.850Z,15.96
2023-10-29T11:51:10.273Z,15.99
2023-10-29T11:55:13.776Z,16.03
2023-10-29T12:04:54.027Z,16.11
2023-10-29T12:08:57.852Z,16.11
2023-10-29T12:13:01.135Z,16.15
2023-10-29T12:17:05.271Z,16.20
2023-10-29T12:21:11.087Z,16.22
2023-10-29T12:25:16.058Z,16.23
2023-10-29T12:29:19.364Z,16.23
2023-10-29T12:33:30.964Z,16.26
2023-10-29T12:37:34.399Z,16.32
2023-10-29T12:41:37.606Z,16.32
2023-10-29T12:45:40.902Z,16.27
2023-10-29T12:49:44.278Z,16.21
2023-10-29T12:53:47.605Z,16.19
2023-10-29T12:57:54.024Z,16.13
2023-10-29T13:02:01.871Z,16.04
2023-10-29T13:06:05.438Z,15.93
2023-10-29T13:10:09.088Z,15.88
2023-10-29T13:14:12.570Z,15.81
2023-10-29T13:18:16.058Z,15.76
2023-10-29T13:22:19.359Z,15.73
2023-10-29T13:26:23.344Z,15.70
2023-10-29T13:30:27.102Z,15.67
2023-10-29T13:34:30.421Z,15.64
2023-10-29T13:38:33.764Z,15.63
2023-10-29T13:42:37.137Z,15.61
2023-10-29T13:46:40.435Z,15.57
2023-10-29T13:50:44.137Z,15.55
2023-10-29T13:54:47.601Z,15.53
2023-10-29T13:58:51.309Z,15.53
2023-10-29T14:02:58.003Z,15.52
2023-10-29T14:07:02.430Z,15.51
2023-10-29T14:11:06.810Z,15.48
2023-10-29T14:15:10.873Z,15.43
2023-10-29T14:19:14.165Z,15.37
2023-10-29T14:23:17.535Z,15.33
2023-10-29T14:27:20.921Z,15.24
2023-10-29T14:31:24.456Z,15.12
2023-10-29T14:35:27.725Z,14.98
2023-10-29T14:39:31.019Z,14.86
2023-10-29T14:43:34.278Z,14.74
2023-10-29T14:47:37.739Z,14.59
2023-10-29T14:51:41.198Z,14.44
2023-10-29T14:55:48.839Z,14.29
2023-10-29T14:59:52.252Z,14.15
2023-10-29T15:03:56.568Z,14.05
2023-10-29T15:07:59.935Z,13.98
2023-10-29T15:12:04.960Z,13.88
2023-10-29T15:16:08.360Z,13.76
2023-10-29T15:20:12.798Z,13.63
2023-10-29T15:24:16.278Z,13.49
2023-10-29T15:28:19.584Z,13.37
2023-10-29T15:32:23.202Z,13.27
2023-10-29T15:36:26.526Z,13.18
2023-10-29T15:40:29.816Z,13.08
2023-10-29T15:44:33.255Z,12.94
2023-10-29T15:48:36.893Z,12.85
2023-10-29T15:52:40.354Z,12.79
2023-10-29T15:56:45.254Z,12.74
2023-10-29T16:00:49.101Z,12.68
2023-10-29T16:04:52.801Z,12.62
2023-10-29T16:08:56.202Z,12.54
2023-10-29T16:12:59.516Z,12.48
2023-10-29T16:17:03.077Z,12.41
2023-10-29T16:21:06.819Z,12.34
2023-10-29T16:25:10.381Z,12.27
2023-10-29T16:29:13.881Z,12.21
2023-10-29T16:33:17.354Z,12.15
2023-10-29T16:37:21.928Z,12.10
2023-10-29T16:41:25.547Z,12.05
2023-10-29T16:45:29.296Z,12.00
2023-10-29T16:49:33.416Z,11.96
2023-10-29T16:53:38.996Z,11.94
2023-10-29T16:57:42.702Z,11.91
2023-10-29T17:01:47.217Z,11.93
2023-10-29T17:05:50.779Z,11.97
2023-10-29T17:09:56.566Z,12.02
2023-10-29T17:14:00.164Z,12.06
2023-10-29T17:18:04.713Z,12.12
2023-10-29T17:22:08.929Z,12.19
2023-10-29T17:26:20.182Z,12.26
2023-10-29T17:30:24.250Z,12.32
2023-10-29T17:34:27.850Z,12.38
2023-10-29T17:38:31.484Z,12.39
2023-10-29T17:42:35.484Z,12.39
2023-10-29T17:46:39.130Z,12.36
2023-10-29T17:50:43.903Z,12.33
2023-10-29T17:54:47.928Z,12.30
2023-10-29T17:58:52.755Z,12.25
2023-10-29T18:02:56.540Z,12.21
2023-10-29T18:07:00.497Z,12.16
2023-10-29T18:11:04.279Z,12.10
2023-10-29T18:15:08.196Z,12.01
2023-10-29T18:19:11.701Z,11.92
2023-10-29T18:23:15.410Z,11.85
2023-10-29T18:27:19.199Z,11.79
2023-10-29T18:31:23.043Z,11.73
2023-10-29T18:35:27.152Z,11.68
2023-10-29T18:39:31.021Z,11.65
2023-10-29T18:43:34.477Z,11.61
2023-10-29T18:47:38.027Z,11.59
2023-10-29T18:51:41.771Z,11.56
2023-10-29T18:55:45.499Z,11.52
2023-10-29T18:59:49.285Z,11.49
2023-10-29T19:03:53.157Z,11.45
2023-10-29T19:07:56.795Z,11.42
2023-10-29T19:12:00.951Z,11.38
2023-10-29T19:16:07.775Z,11.35
2023-10-29T19:20:11.887Z,11.37
2023-10-29T19:24:17.305Z,11.38
2023-10-29T19:28:22.388Z,11.37
2023-10-29T19:32:25.949Z,11.36
2023-10-29T19:36:29.666Z,11.34
2023-10-29T19:40:33.755Z,11.30
2023-10-29T19:44:38.259Z,11.29
2023-10-29T19:48:41.928Z,11.26
2023-10-29T19:52:45.685Z,11.24
2023-10-29T19:56:49.308Z,11.23
2023-10-29T20:01:05.569Z,11.19
2023-10-29T20:05:10.855Z,11.14
2023-10-29T20:09:15.444Z,11.07
2023-10-29T20:13:19.106Z,11.01
2023-10-29T20:17:22.724Z,10.96
2023-10-29T20:21:27.968Z,10.92
2023-10-29T20:25:31.688Z,10.89
2023-10-29T20:29:36.283Z,10.85
2023-10-29T20:33:39.945Z,10.80
2023-10-29T20:37:43.544Z,10.77
2023-10-29T20:41:47.078Z,10.76
2023-10-29T20:45:54.398Z,10.76
2023-10-29T20:49:57.916Z,10.74
2023-10-29T20:54:01.426Z,10.69
2023-10-29T20:58:04.950Z,10.54
2023-10-29T21:02:09.032Z,10.46
2023-10-29T21:06:14.761Z,10.39
2023-10-29T21:10:19.936Z,10.30
2023-10-29T21:14:23.376Z,10.28
2023-10-29T21:18:30.203Z,10.26
2023-10-29T21:22:34.096Z,10.24
2023-10-29T21:26:37.479Z,10.23
2023-10-29T21:30:44.280Z,10.19
2023-10-29T21:34:47.981Z,10.09
2023-10-29T21:38:51.332Z,10.00
2023-10-29T21:42:54.707Z,9.95
2023-10-29T21:46:57.996Z,9.89
2023-10-29T21:51:02.433Z,9.86
2023-10-29T21:55:06.191Z,9.88
2023-10-29T21:59:09.525Z,9.88
2023-10-29T22:03:12.888Z,9.89
2023-10-29T22:07:16.493Z,9.83
2023-10-29T22:11:20.337Z,9.75
2023-10-29T22:15:27.848Z,9.69
2023-10-29T22:19:31.293Z,9.61
2023-10-29T22:23:35.888Z,9.57
2023-10-29T22:27:39.354Z,9.55
2023-10-29T22:31:42.662Z,9.53
2023-10-29T22:35:46.028Z,9.49
2023-10-29T22:39:49.931Z,9.46
2023-10-29T22:43:54.902Z,9.41
2023-10-29T22:47:58.192Z,9.34
2023-10-29T22:52:01.579Z,9.29
2023-10-29T22:56:05.269Z,9.30
2023-10-29T23:00:13.715Z,9.28
2023-10-29T23:04:19.499Z,9.26
2023-10-29T23:08:22.935Z,9.26
2023-10-29T23:12:26.504Z,9.25
2023-10-29T23:16:30.888Z,9.21
2023-10-29T23:20:34.210Z,9.19
2023-10-29T23:24:37.690Z,9.17
2023-10-29T23:28:41.248Z,9.17
2023-10-29T23:32:44.604Z,9.17
2023-10-29T23:36:47.959Z,9.19
2023-10-29T23:40:51.249Z,9.19
2023-10-29T23:44:55.968Z,9.20
2023-10-29T23:48:59.317Z,9.22
2023-10-29T23:53:02.677Z,9.25
2023-10-29T23:57:05.935Z,9.29
